Terminal Aerodrome Forecast
Issued by NWS Green Bay, WI

Home | Current Version | Previous Version | Text Only | Print | Product List | Glossary Off
Versions: 1 2 3 4 5 6 7 8 9 10 11 12 13 14 15 16 17 18 19 20 21 22 23 24 25 26 27

000
FTUS43 KGRB 281100
TAFGRB
TAF
KGRB 281127Z 2812/2912 00000KT 6SM BR SCT250
      TEMPO 2812/2814 1SM BR
     FM281400 23004KT P6SM FEW050 BKN250
     FM282300 19003KT P6SM SKC
     FM290500 24003KT 5SM BR SKC=

USA.gov is the U.S. government's official web portal to all federal, state and local government web resources and services.